Time;durP1;ratioP1;P1;durP2;ratioP2;P2;SDS_P1;SDS_P2;PMS_P1;PMS_P2;Temp;Humidity;BMP_temperature;BMP_pressure;BME280_temperature;BME280_humidity;BME280_pressure;Samples;Min_cycle;Max_cycle;Signal;HPM_P1;HPM_P2
2024/01/31 00:01:33;;;;;;;4.57;2.97;;;8.40;58.40;;;;;;4997048;28;20026;-78
2024/01/31 00:04:02;;;;;;;5.30;3.38;;;8.40;58.40;;;;;;5004900;28;20034;-79
2024/01/31 00:06:28;;;;;;;4.18;2.90;;;8.30;58.20;;;;;;4987086;28;20024;-78
2024/01/31 00:08:56;;;;;;;5.53;2.97;;;8.40;58.40;;;;;;5018928;28;20303;-79
2024/01/31 00:11:30;;;;;;;3.83;3.05;;;8.40;58.30;;;;;;5021831;28;20556;-77
2024/01/31 00:13:57;;;;;;;3.83;2.60;;;8.40;58.30;;;;;;5017848;28;20118;-77
2024/01/31 00:16:23;;;;;;;3.88;2.65;;;8.40;58.30;;;;;;5017995;28;20048;-78
2024/01/31 00:18:50;;;;;;;4.93;2.72;;;8.40;58.30;;;;;;5019804;28;20025;-78
2024/01/31 00:21:17;;;;;;;7.60;3.17;;;8.40;58.30;;;;;;5022174;28;20055;-78
2024/01/31 00:23:43;;;;;;;5.70;3.20;;;8.40;58.30;;;;;;5019296;28;20433;-78
2024/01/31 00:26:09;;;;;;;4.30;3.88;;;8.40;58.30;;;;;;5018980;28;20619;-78
2024/01/31 00:28:35;;;;;;;3.83;1.92;;;8.40;58.20;;;;;;4986864;28;20029;-79
2024/01/31 00:31:02;;;;;;;4.28;2.75;;;8.40;58.30;;;;;;5002440;28;20021;-77
2024/01/31 00:33:28;;;;;;;3.70;2.58;;;8.40;58.30;;;;;;5001248;28;20279;-79
2024/01/31 00:35:55;;;;;;;3.85;2.42;;;8.30;58.00;;;;;;5019738;28;20064;-78
2024/01/31 00:38:22;;;;;;;4.40;2.67;;;8.40;58.30;;;;;;5016448;28;20047;-77
2024/01/31 00:40:50;;;;;;;4.88;2.92;;;8.40;58.20;;;;;;5017740;28;20034;-78
2024/01/31 00:43:19;;;;;;;3.72;2.28;;;8.40;58.20;;;;;;5020716;28;20144;-78
2024/01/31 00:45:46;;;;;;;5.40;2.67;;;8.30;58.00;;;;;;5016750;28;20029;-78
2024/01/31 00:48:11;;;;;;;3.47;2.42;;;8.40;58.20;;;;;;5016600;28;20049;-79
2024/01/31 00:50:37;;;;;;;5.80;2.63;;;8.30;58.00;;;;;;5014872;28;20034;-78
2024/01/31 00:53:04;;;;;;;4.28;2.33;;;8.40;58.20;;;;;;5017815;28;20044;-78
2024/01/31 00:55:30;;;;;;;4.03;2.92;;;8.30;58.00;;;;;;5020826;28;20037;-78
2024/01/31 00:57:57;;;;;;;3.40;2.40;;;8.30;58.00;;;;;;5016323;28;20228;-79
2024/01/31 01:00:26;;;;;;;4.25;2.30;;;8.30;57.90;;;;;;5017853;28;20669;-79
2024/01/31 01:02:52;;;;;;;4.70;2.47;;;8.30;57.90;;;;;;5019436;28;20032;-77
2024/01/31 01:05:20;;;;;;;5.20;2.65;;;8.30;58.00;;;;;;5018190;28;20045;-78
2024/01/31 01:07:50;;;;;;;2.90;2.38;;;8.40;58.10;;;;;;5018968;28;20026;-77
2024/01/31 01:10:19;;;;;;;3.95;2.67;;;8.40;58.10;;;;;;5019316;28;20044;-77
2024/01/31 01:12:46;;;;;;;3.85;2.50;;;8.30;57.90;;;;;;5001146;28;20029;-76
2024/01/31 01:15:18;;;;;;;2.88;2.58;;;8.30;57.90;;;;;;5019761;28;20041;-75
2024/01/31 01:17:46;;;;;;;2.97;2.25;;;8.40;58.10;;;;;;5019011;28;20029;-74
2024/01/31 01:20:13;;;;;;;4.97;2.78;;;8.30;57.90;;;;;;4999701;28;20584;-75
2024/01/31 01:22:42;;;;;;;3.55;2.25;;;8.30;57.80;;;;;;5000087;28;20030;-77
2024/01/31 01:25:10;;;;;;;3.30;2.22;;;8.30;57.80;;;;;;5016844;28;20410;-77
2024/01/31 01:27:36;;;;;;;5.97;2.40;;;8.40;58.10;;;;;;5017794;28;20116;-76
2024/01/31 01:30:03;;;;;;;4.72;2.90;;;8.40;58.10;;;;;;5018216;28;20075;-77
2024/01/31 01:32:30;;;;;;;5.13;2.40;;;8.40;58.00;;;;;;5017963;28;20157;-75
2024/01/31 01:34:56;;;;;;;3.58;2.30;;;8.40;58.10;;;;;;5016087;28;20400;-75
2024/01/31 01:37:23;;;;;;;3.70;2.63;;;8.30;57.90;;;;;;5016152;28;20044;-75
2024/01/31 01:39:50;;;;;;;2.20;2.00;;;8.30;57.90;;;;;;5000524;28;20052;-75
2024/01/31 01:42:17;;;;;;;3.22;2.50;;;8.30;58.00;;;;;;5016805;28;20417;-75
2024/01/31 01:44:47;;;;;;;3.97;2.40;;;8.30;58.00;;;;;;5016212;28;20057;-76
2024/01/31 01:47:15;;;;;;;2.83;2.15;;;8.30;58.00;;;;;;5010524;28;20400;-74
2024/01/31 01:49:44;;;;;;;3.08;2.35;;;8.20;57.90;;;;;;5011055;28;20032;-77
2024/01/31 01:52:12;;;;;;;4.95;2.40;;;8.20;58.00;;;;;;5018020;28;20586;-79
2024/01/31 01:54:39;;;;;;;3.80;2.13;;;8.10;57.80;;;;;;4998646;28;20306;-76
2024/01/31 01:57:08;;;;;;;6.65;2.95;;;8.10;57.90;;;;;;5018800;28;20483;-75
2024/01/31 01:59:37;;;;;;;3.90;2.97;;;8.10;57.90;;;;;;5000412;28;20064;-77
2024/01/31 02:02:07;;;;;;;5.25;2.40;;;8.10;58.00;;;;;;5000823;28;20029;-77
2024/01/31 02:04:34;;;;;;;4.03;2.30;;;8.00;57.90;;;;;;5017542;28;20029;-77
2024/01/31 02:07:01;;;;;;;5.90;2.60;;;8.00;57.90;;;;;;5018202;28;20033;-77
2024/01/31 02:09:28;;;;;;;5.00;2.78;;;8.00;58.00;;;;;;4984068;28;20547;-77
2024/01/31 02:11:54;;;;;;;5.20;2.55;;;7.90;57.90;;;;;;5018784;28;20037;-77
2024/01/31 02:14:21;;;;;;;2.72;2.13;;;7.80;57.70;;;;;;4999966;28;20386;-77
2024/01/31 02:16:48;;;;;;;2.55;2.33;;;7.80;57.80;;;;;;5017588;28;20033;-79
2024/01/31 02:19:14;;;;;;;4.32;2.47;;;7.80;57.90;;;;;;5018753;28;20485;-76
2024/01/31 02:21:45;;;;;;;4.82;2.42;;;7.70;57.80;;;;;;5000595;28;20533;-78
2024/01/31 02:24:11;;;;;;;2.92;2.00;;;7.70;57.90;;;;;;4999696;28;20484;-78
2024/01/31 02:26:38;;;;;;;4.57;2.58;;;7.60;57.70;;;;;;5018466;28;20060;-76
2024/01/31 02:29:05;;;;;;;4.47;2.25;;;7.60;57.80;;;;;;5018426;28;20026;-77
2024/01/31 02:31:34;;;;;;;2.88;2.20;;;7.50;57.70;;;;;;5000560;28;20053;-78
2024/01/31 02:34:01;;;;;;;3.03;2.70;;;7.50;57.70;;;;;;4996582;28;20028;-78
2024/01/31 02:36:29;;;;;;;3.42;2.17;;;7.50;57.70;;;;;;5020679;28;20381;-78
2024/01/31 02:38:55;;;;;;;3.33;2.33;;;7.40;57.50;;;;;;5018316;28;20030;-77
2024/01/31 02:41:21;;;;;;;3.53;2.50;;;7.40;57.60;;;;;;5019692;28;20496;-77
2024/01/31 02:43:48;;;;;;;2.25;2.05;;;7.40;57.60;;;;;;5020852;28;20029;-77
2024/01/31 02:46:14;;;;;;;3.22;2.20;;;7.40;57.60;;;;;;5019748;28;20056;-77
2024/01/31 02:48:40;;;;;;;4.47;2.58;;;7.30;57.50;;;;;;4995885;28;20628;-77
2024/01/31 02:51:07;;;;;;;3.83;2.28;;;7.30;57.60;;;;;;5002084;28;20034;-77
2024/01/31 02:53:33;;;;;;;4.13;2.80;;;7.30;57.60;;;;;;5005880;28;20185;-76
2024/01/31 02:55:59;;;;;;;3.13;2.60;;;7.20;57.40;;;;;;5024924;28;20043;-78
2024/01/31 02:58:25;;;;;;;3.28;2.30;;;7.20;57.50;;;;;;4997107;28;20520;-78
2024/01/31 03:00:51;;;;;;;4.07;2.25;;;7.20;57.60;;;;;;5027894;28;20112;-77
2024/01/31 03:03:18;;;;;;;3.95;2.47;;;7.10;57.40;;;;;;5027459;28;20022;-77
2024/01/31 03:05:44;;;;;;;5.45;2.42;;;7.00;57.30;;;;;;5025408;28;20135;-76
2024/01/31 03:08:10;;;;;;;5.47;2.42;;;7.00;57.40;;;;;;5025197;28;20099;-77
2024/01/31 03:10:36;;;;;;;4.05;2.38;;;7.00;57.40;;;;;;5027735;28;20400;-77
2024/01/31 03:13:03;;;;;;;3.97;2.60;;;6.90;57.30;;;;;;5011071;28;20116;-79
2024/01/31 03:15:29;;;;;;;2.53;2.28;;;6.90;57.30;;;;;;5005200;28;20415;-77
2024/01/31 03:17:54;;;;;;;3.85;2.10;;;6.90;57.40;;;;;;5028478;28;20288;-76
2024/01/31 03:20:21;;;;;;;3.30;2.10;;;6.80;57.20;;;;;;5025456;28;20030;-77
2024/01/31 03:22:47;;;;;;;2.78;1.92;;;6.70;57.10;;;;;;5027777;28;20040;-80
2024/01/31 03:25:13;;;;;;;4.82;2.58;;;6.70;57.20;;;;;;5006938;28;20107;-79
2024/01/31 03:27:39;;;;;;;2.90;2.30;;;6.60;57.00;;;;;;5029179;28;20025;-76
2024/01/31 03:30:06;;;;;;;4.03;2.53;;;6.60;57.10;;;;;;5025515;28;20574;-76
2024/01/31 03:32:33;;;;;;;3.58;2.40;;;6.60;57.20;;;;;;5020867;28;20022;-77
2024/01/31 03:34:59;;;;;;;3.50;2.33;;;6.50;57.00;;;;;;5021089;28;20103;-80
2024/01/31 03:37:26;;;;;;;4.03;2.63;;;6.50;57.10;;;;;;5020858;28;20500;-76
2024/01/31 03:39:53;;;;;;;3.67;2.40;;;6.40;56.90;;;;;;5025549;28;20119;-78
2024/01/31 03:42:19;;;;;;;5.82;2.33;;;6.40;56.90;;;;;;5005788;28;20402;-79
2024/01/31 03:44:45;;;;;;;4.65;2.10;;;6.40;57.00;;;;;;5001675;28;20119;-78
2024/01/31 03:47:11;;;;;;;5.70;2.28;;;6.40;57.00;;;;;;5023064;28;20095;-78
2024/01/31 03:49:37;;;;;;;2.85;2.20;;;6.30;56.80;;;;;;5005508;28;20037;-78
2024/01/31 03:52:03;;;;;;;4.60;2.78;;;6.30;56.80;;;;;;5001389;28;20021;-78
2024/01/31 03:54:29;;;;;;;3.05;2.67;;;6.30;56.90;;;;;;5022991;28;20048;-78
2024/01/31 03:56:55;;;;;;;2.50;2.03;;;6.20;56.70;;;;;;5007706;28;20030;-78
2024/01/31 03:59:22;;;;;;;3.30;3.00;;;6.20;56.70;;;;;;5022967;28;20167;-78
2024/01/31 04:01:51;;;;;;;3.00;2.60;;;6.20;56.80;;;;;;5019779;28;20022;-78
2024/01/31 04:04:17;;;;;;;4.03;2.75;;;6.10;56.60;;;;;;5000260;28;20029;-77
2024/01/31 04:06:43;;;;;;;6.05;3.22;;;6.10;56.70;;;;;;5026230;28;20583;-77
2024/01/31 04:09:09;;;;;;;4.65;2.38;;;6.10;56.70;;;;;;5007151;28;20164;-79
2024/01/31 04:11:35;;;;;;;3.20;2.72;;;6.00;56.60;;;;;;5028224;28;20623;-76
2024/01/31 04:14:02;;;;;;;5.15;3.05;;;6.00;56.60;;;;;;5027811;28;20036;-77
2024/01/31 04:16:29;;;;;;;3.85;2.58;;;6.00;56.60;;;;;;5010013;28;20045;-76
2024/01/31 04:18:55;;;;;;;4.10;2.78;;;6.00;56.60;;;;;;5025541;28;20064;-79
2024/01/31 04:21:22;;;;;;;4.35;2.97;;;6.00;56.70;;;;;;5004948;28;20040;-77
2024/01/31 04:23:48;;;;;;;3.35;2.80;;;5.90;56.50;;;;;;5007588;28;20101;-76
2024/01/31 04:26:14;;;;;;;3.95;3.22;;;5.90;56.50;;;;;;5026256;28;20032;-80
2024/01/31 04:28:40;;;;;;;3.42;2.97;;;5.90;56.50;;;;;;4999658;28;20064;-76
2024/01/31 04:31:13;;;;;;;2.85;2.60;;;5.90;56.50;;;;;;5009105;28;20267;-77
2024/01/31 04:33:39;;;;;;;3.80;2.97;;;5.90;56.50;;;;;;5019609;28;20033;-77
2024/01/31 04:36:05;;;;;;;6.43;3.03;;;5.90;56.50;;;;;;5010027;28;20045;-78
2024/01/31 04:38:32;;;;;;;3.35;2.97;;;5.80;56.40;;;;;;5017452;28;20075;-78
2024/01/31 04:40:58;;;;;;;3.70;2.35;;;5.80;56.40;;;;;;5009562;28;20106;-78
2024/01/31 04:43:25;;;;;;;4.53;2.90;;;5.80;56.30;;;;;;5020243;28;20036;-78
2024/01/31 04:45:51;;;;;;;4.35;3.00;;;5.80;56.40;;;;;;5027017;28;20060;-78
2024/01/31 04:48:18;;;;;;;4.00;2.80;;;5.80;56.40;;;;;;5024881;28;20046;-78
2024/01/31 04:50:44;;;;;;;5.40;3.10;;;5.80;56.40;;;;;;5002078;28;20040;-79
2024/01/31 04:53:13;;;;;;;5.70;3.20;;;5.80;56.40;;;;;;5025588;28;20117;-78
2024/01/31 04:55:39;;;;;;;6.78;3.10;;;5.80;56.40;;;;;;5001645;28;20444;-77
2024/01/31 04:58:06;;;;;;;4.28;2.97;;;5.80;56.40;;;;;;5009815;28;20037;-78
2024/01/31 05:00:32;;;;;;;5.18;3.10;;;5.80;56.40;;;;;;5027178;28;20040;-78
2024/01/31 05:02:58;;;;;;;6.72;3.00;;;5.80;56.30;;;;;;5019040;28;20271;-77
2024/01/31 05:05:24;;;;;;;4.53;3.00;;;5.80;56.30;;;;;;5024161;28;20028;-77
2024/01/31 05:07:51;;;;;;;4.72;3.10;;;5.70;56.20;;;;;;5023203;28;20041;-78
2024/01/31 05:10:18;;;;;;;3.20;2.72;;;5.80;56.40;;;;;;5018394;28;20025;-77
2024/01/31 05:12:44;;;;;;;4.78;2.70;;;5.70;56.20;;;;;;5026448;28;20126;-78
2024/01/31 05:15:10;;;;;;;7.20;3.45;;;5.70;56.20;;;;;;5008843;28;20512;-77
2024/01/31 05:17:37;;;;;;;4.80;2.40;;;5.70;56.20;;;;;;5025959;28;20053;-77
2024/01/31 05:20:03;;;;;;;3.85;3.35;;;5.70;56.20;;;;;;5009257;28;20273;-77
2024/01/31 05:22:29;;;;;;;5.35;2.90;;;5.70;56.20;;;;;;5024098;28;20044;-78
2024/01/31 05:24:55;;;;;;;3.85;2.90;;;5.70;56.30;;;;;;5025688;28;20102;-76
2024/01/31 05:27:21;;;;;;;4.70;2.95;;;5.70;56.30;;;;;;5012378;28;20033;-78
2024/01/31 05:29:48;;;;;;;3.67;2.88;;;5.70;56.30;;;;;;5023817;28;20070;-77
2024/01/31 05:32:14;;;;;;;6.40;2.53;;;5.80;56.40;;;;;;5002262;28;20022;-77
2024/01/31 05:34:44;;;;;;;6.93;3.47;;;5.80;56.40;;;;;;5025919;28;20045;-78
2024/01/31 05:37:10;;;;;;;3.08;2.17;;;5.80;56.40;;;;;;5023944;28;20373;-78
2024/01/31 05:39:36;;;;;;;4.68;3.00;;;5.80;56.30;;;;;;5025744;28;20501;-77
2024/01/31 05:42:02;;;;;;;2.85;2.50;;;5.80;56.30;;;;;;5025751;28;20491;-77
2024/01/31 05:44:28;;;;;;;6.15;2.67;;;5.80;56.20;;;;;;5019725;28;20049;-77
2024/01/31 05:46:54;;;;;;;3.95;2.28;;;5.90;56.40;;;;;;4996243;28;20083;-77
2024/01/31 05:49:20;;;;;;;4.80;2.35;;;5.90;56.40;;;;;;4984721;28;20021;-78
2024/01/31 05:51:46;;;;;;;6.22;2.75;;;5.90;56.30;;;;;;5013543;28;20563;-77
2024/01/31 05:54:13;;;;;;;2.95;2.10;;;5.90;56.30;;;;;;5018281;28;20489;-78
2024/01/31 05:56:39;;;;;;;5.63;2.38;;;5.90;56.30;;;;;;5005140;28;20030;-77
2024/01/31 05:59:05;;;;;;;5.95;2.53;;;5.90;56.30;;;;;;5003416;28;20037;-77
2024/01/31 06:01:31;;;;;;;4.10;2.20;;;5.90;56.30;;;;;;5021666;28;20477;-78
2024/01/31 06:03:57;;;;;;;6.07;2.20;;;5.90;56.20;;;;;;5004410;28;20034;-77
2024/01/31 06:06:23;;;;;;;4.13;1.80;;;5.90;56.20;;;;;;5022021;28;20072;-78
2024/01/31 06:08:49;;;;;;;3.67;2.38;;;5.90;56.30;;;;;;5024356;28;20048;-77
2024/01/31 06:11:15;;;;;;;5.47;2.42;;;6.00;56.40;;;;;;4984858;28;20160;-77
2024/01/31 06:13:41;;;;;;;7.15;2.10;;;6.00;56.40;;;;;;5022444;28;20434;-78
2024/01/31 06:16:07;;;;;;;4.15;1.83;;;6.00;56.40;;;;;;5017582;28;20513;-78
2024/01/31 06:18:34;;;;;;;3.75;1.90;;;6.00;56.40;;;;;;5024799;28;20034;-78
2024/01/31 06:21:01;;;;;;;2.92;2.15;;;6.00;56.40;;;;;;5017609;28;20029;-76
2024/01/31 06:23:27;;;;;;;4.82;1.90;;;6.00;56.30;;;;;;5020665;28;20167;-76
2024/01/31 06:25:53;;;;;;;4.80;2.55;;;6.10;56.50;;;;;;5019512;28;20034;-77
2024/01/31 06:28:19;;;;;;;3.40;1.55;;;6.10;56.40;;;;;;5000290;28;20029;-77
2024/01/31 06:30:45;;;;;;;4.72;2.05;;;6.10;56.40;;;;;;5021590;28;20033;-77
2024/01/31 06:33:11;;;;;;;3.58;1.85;;;6.20;56.50;;;;;;5024267;28;20367;-80
2024/01/31 06:35:42;;;;;;;5.43;1.80;;;6.20;56.40;;;;;;5024584;28;20040;-78
2024/01/31 06:38:08;;;;;;;3.80;1.77;;;6.30;56.50;;;;;;5018679;28;20025;-77
2024/01/31 06:40:35;;;;;;;3.95;1.95;;;6.30;56.50;;;;;;5025289;28;20496;-76
2024/01/31 06:43:02;;;;;;;3.05;1.52;;;6.30;56.40;;;;;;5027956;28;20522;-77
2024/01/31 06:45:28;;;;;;;6.13;1.90;;;6.30;56.50;;;;;;5021592;28;20399;-78
2024/01/31 06:47:54;;;;;;;5.10;1.83;;;6.40;57.40;;;;;;5001884;28;20343;-78
2024/01/31 06:50:26;;;;;;;4.93;1.40;;;6.60;58.10;;;;;;5017689;28;20041;-77
2024/01/31 06:52:53;;;;;;;2.83;1.58;;;6.80;58.60;;;;;;5007690;28;20343;-77
2024/01/31 06:55:18;;;;;;;5.43;1.60;;;6.90;58.80;;;;;;4998209;28;20544;-78
2024/01/31 06:57:45;;;;;;;5.10;1.70;;;6.90;58.80;;;;;;5017274;28;20041;-77
2024/01/31 07:00:15;;;;;;;2.63;1.80;;;7.00;59.00;;;;;;5001434;28;20040;-78
2024/01/31 07:02:46;;;;;;;4.55;1.73;;;7.00;59.10;;;;;;5000525;28;20028;-79
2024/01/31 07:05:13;;;;;;;7.63;2.45;;;7.00;59.10;;;;;;5022840;28;20119;-78
2024/01/31 07:07:42;;;;;;;9.90;3.22;;;7.00;59.20;;;;;;5018200;28;20033;-78
2024/01/31 07:10:09;;;;;;;8.40;3.25;;;7.00;59.30;;;;;;5018804;28;20025;-78
2024/01/31 07:12:36;;;;;;;11.85;2.83;;;7.10;59.70;;;;;;4996556;28;20044;-78
2024/01/31 07:15:03;;;;;;;11.93;3.70;;;7.10;59.90;;;;;;5012632;28;20033;-77
2024/01/31 07:17:30;;;;;;;7.95;3.05;;;7.20;60.20;;;;;;5011005;28;20120;-77
2024/01/31 07:20:00;;;;;;;6.00;2.97;;;7.30;60.60;;;;;;5016443;28;20041;-77
2024/01/31 07:22:26;;;;;;;11.02;3.53;;;7.40;60.80;;;;;;5013103;28;20107;-77
2024/01/31 07:24:52;;;;;;;9.88;2.47;;;7.40;61.00;;;;;;4997018;28;20260;-79
2024/01/31 07:27:18;;;;;;;8.70;2.70;;;7.50;61.20;;;;;;5013776;28;20025;-76
2024/01/31 07:29:48;;;;;;;10.25;3.08;;;7.60;61.50;;;;;;5012328;28;20518;-78
2024/01/31 07:32:24;;;;;;;7.30;3.03;;;7.70;62.00;;;;;;5013176;28;20029;-80
2024/01/31 07:34:50;;;;;;;8.38;2.92;;;8.00;62.80;;;;;;4997035;28;20037;-78
2024/01/31 07:37:17;;;;;;;7.88;2.55;;;8.30;63.40;;;;;;5013007;28;20516;-78
2024/01/31 07:39:43;;;;;;;6.63;2.28;;;8.50;63.60;;;;;;5012184;28;20034;-76
2024/01/31 07:42:09;;;;;;;6.90;2.60;;;8.80;63.80;;;;;;5012477;28;20029;-77
2024/01/31 07:44:35;;;;;;;5.18;2.10;;;9.10;64.10;;;;;;4994970;28;20080;-78
2024/01/31 07:47:02;;;;;;;7.85;2.42;;;9.40;64.20;;;;;;5012392;28;20401;-77
2024/01/31 07:49:30;;;;;;;4.47;1.83;;;9.60;64.10;;;;;;5015046;28;20031;-77
2024/01/31 07:51:57;;;;;;;7.57;2.47;;;9.90;64.30;;;;;;5016365;28;20640;-75
2024/01/31 07:54:23;;;;;;;7.95;2.50;;;10.10;64.20;;;;;;5021426;28;20475;-77
2024/01/31 07:56:53;;;;;;;6.35;2.50;;;10.30;64.30;;;;;;5020650;28;20029;-78
2024/01/31 07:59:19;;;;;;;3.72;1.90;;;10.50;64.30;;;;;;5029572;28;20068;-77
2024/01/31 08:01:45;;;;;;;4.15;1.40;;;10.70;64.30;;;;;;5022209;28;20781;-78
2024/01/31 08:04:15;;;;;;;5.75;1.88;;;10.90;64.40;;;;;;5001843;28;20029;-77
2024/01/31 08:06:44;;;;;;;4.07;1.42;;;11.00;64.30;;;;;;5016828;28;20094;-78
2024/01/31 08:09:12;;;;;;;4.80;1.52;;;11.20;64.40;;;;;;5019084;28;20099;-76
2024/01/31 08:11:42;;;;;;;7.10;1.95;;;11.30;64.20;;;;;;4991813;28;20064;-77
2024/01/31 08:14:09;;;;;;;4.68;1.85;;;11.50;64.40;;;;;;5014094;28;20034;-78
2024/01/31 08:16:37;;;;;;;7.20;2.22;;;11.60;64.30;;;;;;5020472;28;20351;-76
2024/01/31 08:19:04;;;;;;;4.30;1.75;;;11.70;64.20;;;;;;4981711;28;20025;-78
2024/01/31 08:21:33;;;;;;;3.92;1.40;;;11.90;64.20;;;;;;5015792;28;20132;-76
2024/01/31 08:24:03;;;;;;;4.50;1.55;;;12.00;64.10;;;;;;5016190;28;20057;-77
2024/01/31 08:26:29;;;;;;;4.82;2.33;;;12.10;64.00;;;;;;5016681;28;20034;-76
2024/01/31 08:28:55;;;;;;;5.72;1.60;;;12.30;64.10;;;;;;5020281;28;20068;-77
2024/01/31 08:31:22;;;;;;;3.53;1.77;;;12.30;63.90;;;;;;5018570;28;20257;-77
2024/01/31 08:33:50;;;;;;;6.25;1.55;;;12.50;64.00;;;;;;5021161;28;20048;-76
2024/01/31 08:36:16;;;;;;;6.72;1.48;;;12.60;63.90;;;;;;5022872;28;20850;-77
2024/01/31 08:38:45;;;;;;;4.03;1.58;;;12.70;63.80;;;;;;5018491;28;20286;-77
2024/01/31 08:41:14;;;;;;;5.32;1.30;;;12.80;63.70;;;;;;5017534;28;20041;-76
2024/01/31 08:43:40;;;;;;;4.07;1.38;;;12.90;63.60;;;;;;4998587;28;20056;-77
2024/01/31 08:46:06;;;;;;;5.88;1.40;;;13.00;63.50;;;;;;5018725;28;20464;-76
2024/01/31 08:48:32;;;;;;;5.28;1.63;;;13.10;63.40;;;;;;5018098;28;20357;-77
2024/01/31 08:50:59;;;;;;;5.13;1.30;;;13.20;63.80;;;;;;4993345;28;20022;-76
2024/01/31 08:53:25;;;;;;;5.95;1.27;;;13.30;63.20;;;;;;5021238;28;20057;-75
2024/01/31 08:55:51;;;;;;;5.13;1.60;;;13.40;63.10;;;;;;5003051;28;20125;-75
2024/01/31 08:58:17;;;;;;;3.20;1.55;;;13.50;63.10;;;;;;4994168;28;20033;-76
2024/01/31 09:00:44;;;;;;;2.88;1.23;;;13.50;62.80;;;;;;5011702;28;20038;-76
2024/01/31 09:03:10;;;;;;;4.43;1.33;;;13.70;62.90;;;;;;4999267;28;20029;-76
2024/01/31 09:05:36;;;;;;;3.78;1.20;;;13.70;62.70;;;;;;5017926;28;20029;-77
2024/01/31 09:08:03;;;;;;;3.72;1.00;;;13.80;62.60;;;;;;5009319;28;20416;-76
2024/01/31 09:10:30;;;;;;;2.92;2.00;;;13.90;62.50;;;;;;5012270;28;20045;-75
2024/01/31 09:12:57;;;;;;;4.75;1.33;;;13.90;62.30;;;;;;5017921;28;20447;-76
2024/01/31 09:15:23;;;;;;;3.70;1.30;;;14.00;62.20;;;;;;5008537;28;20072;-77
2024/01/31 09:17:51;;;;;;;1.92;1.08;;;14.10;62.10;;;;;;4994877;28;20029;-77
2024/01/31 09:20:18;;;;;;;3.00;1.10;;;14.20;62.10;;;;;;4993322;28;20072;-75
2024/01/31 09:22:45;;;;;;;3.75;0.93;;;14.30;62.10;;;;;;5014173;28;20059;-77
2024/01/31 09:25:11;;;;;;;4.85;1.00;;;14.30;61.80;;;;;;5013174;28;20422;-77
2024/01/31 09:27:37;;;;;;;4.10;1.42;;;14.30;61.60;;;;;;4988495;28;20048;-77
2024/01/31 09:30:04;;;;;;;4.10;1.13;;;14.40;61.60;;;;;;5015992;28;20485;-78
2024/01/31 09:32:30;;;;;;;2.17;0.90;;;14.50;61.60;;;;;;5013339;28;20485;-77
2024/01/31 09:34:57;;;;;;;1.25;1.00;;;14.60;61.50;;;;;;5014585;28;20045;-77
2024/01/31 09:37:23;;;;;;;1.67;0.88;;;14.60;61.30;;;;;;5013515;28;20111;-77
2024/01/31 09:39:54;;;;;;;2.47;1.02;;;14.70;61.30;;;;;;5014336;28;20036;-77
2024/01/31 09:42:21;;;;;;;2.72;1.00;;;14.70;61.10;;;;;;4999330;28;20290;-77
2024/01/31 09:44:50;;;;;;;1.60;0.95;;;14.80;61.10;;;;;;5007992;28;20036;-77
2024/01/31 09:47:17;;;;;;;3.10;0.98;;;14.90;61.00;;;;;;4993206;28;20054;-77
2024/01/31 09:49:44;;;;;;;4.47;1.08;;;14.90;60.80;;;;;;4990981;28;20026;-76
2024/01/31 09:52:14;;;;;;;3.03;1.20;;;15.00;60.70;;;;;;5011717;28;20115;-76
2024/01/31 09:54:41;;;;;;;3.17;1.52;;;15.10;60.70;;;;;;5012433;28;20213;-76
2024/01/31 09:57:08;;;;;;;1.90;0.70;;;15.10;60.50;;;;;;4993504;28;20532;-76
2024/01/31 09:59:34;;;;;;;2.08;0.70;;;15.20;60.40;;;;;;5009349;28;20033;-75
2024/01/31 10:02:01;;;;;;;3.25;1.40;;;15.30;60.40;;;;;;5010662;28;20559;-76
2024/01/31 10:04:29;;;;;;;2.67;0.70;;;15.30;60.20;;;;;;4978002;28;20025;-77
2024/01/31 10:06:55;;;;;;;4.40;1.60;;;15.40;60.10;;;;;;4991281;28;20029;-75
2024/01/31 10:09:22;;;;;;;6.43;1.25;;;15.50;60.10;;;;;;5021481;28;20033;-77
2024/01/31 10:11:51;;;;;;;3.40;1.15;;;15.50;60.00;;;;;;5005983;28;20037;-78
2024/01/31 10:14:21;;;;;;;2.60;0.70;;;15.50;59.70;;;;;;5018799;28;20083;-77
2024/01/31 10:16:47;;;;;;;5.57;0.82;;;15.60;59.80;;;;;;4998055;28;20037;-76
2024/01/31 10:19:15;;;;;;;3.08;0.85;;;15.60;59.60;;;;;;4967794;28;20576;-76
2024/01/31 10:21:41;;;;;;;2.05;1.10;;;15.70;59.60;;;;;;5021503;28;20044;-76
2024/01/31 10:24:08;;;;;;;6.47;1.10;;;15.70;59.40;;;;;;5018272;28;20451;-77
2024/01/31 10:26:35;;;;;;;2.33;0.73;;;15.70;59.30;;;;;;5015735;28;20026;-76
2024/01/31 10:29:02;;;;;;;4.32;1.02;;;15.80;59.30;;;;;;5016888;28;20033;-79
2024/01/31 10:31:29;;;;;;;5.65;1.50;;;15.90;59.20;;;;;;4998543;28;20046;-77
2024/01/31 10:33:58;;;;;;;1.52;0.55;;;15.90;59.10;;;;;;5020649;28;20029;-77
2024/01/31 10:36:26;;;;;;;2.88;1.35;;;16.00;59.10;;;;;;5016812;28;20570;-76
2024/01/31 10:38:52;;;;;;;2.78;1.10;;;16.10;59.00;;;;;;5019683;28;20029;-76
2024/01/31 10:41:20;;;;;;;3.47;1.08;;;16.10;58.70;;;;;;5022658;28;20029;-77
2024/01/31 10:43:50;;;;;;;0.70;0.43;;;16.20;58.70;;;;;;4991065;28;20105;-78
2024/01/31 10:46:17;;;;;;;4.00;1.25;;;16.30;58.70;;;;;;4991238;28;20389;-78
2024/01/31 10:48:54;;;;;;;2.53;0.80;;;16.40;58.60;;;;;;5021951;28;20053;-76
2024/01/31 10:51:27;;;;;;;;;;;16.50;58.50;;;;;;4993948;28;20575;-77
2024/01/31 10:53:59;;;;;;;2.50;1.00;;;16.60;58.50;;;;;;5023184;28;20149;-77
2024/01/31 10:56:26;;;;;;;2.92;1.02;;;16.70;58.60;;;;;;5006322;28;20512;-77
2024/01/31 10:58:57;;;;;;;3.70;1.45;;;16.70;58.20;;;;;;5006826;28;20235;-76
2024/01/31 11:01:30;;;;;;;2.17;0.63;;;16.80;58.20;;;;;;5020795;28;20572;-77
2024/01/31 11:03:57;;;;;;;3.28;0.82;;;16.80;57.90;;;;;;5018055;28;20112;-77
2024/01/31 11:06:25;;;;;;;4.68;1.40;;;16.90;58.00;;;;;;5002521;28;20030;-77
2024/01/31 11:08:52;;;;;;;3.72;1.05;;;17.00;58.10;;;;;;5025822;28;20049;-77
2024/01/31 11:11:24;;;;;;;3.58;1.00;;;17.00;57.80;;;;;;5014826;28;20034;-78
2024/01/31 11:13:56;;;;;;;2.15;0.70;;;17.10;57.70;;;;;;5017104;28;20044;-77
2024/01/31 11:16:24;;;;;;;3.58;0.85;;;17.10;57.50;;;;;;5015869;28;20164;-79
2024/01/31 11:18:55;;;;;;;2.78;0.73;;;17.20;57.50;;;;;;5016762;28;20025;-78
2024/01/31 11:21:23;;;;;;;1.20;0.73;;;17.20;57.40;;;;;;5016008;28;20044;-78
2024/01/31 11:23:50;;;;;;;2.42;0.95;;;17.30;57.30;;;;;;5013436;28;20026;-78
2024/01/31 11:26:33;;;;;;;8.40;1.50;;;17.30;57.20;;;;;;5012449;28;20033;-77
2024/01/31 11:29:01;;;;;;;2.85;0.80;;;17.30;57.00;;;;;;5013942;28;20485;-77
2024/01/31 11:31:29;;;;;;;1.67;0.82;;;17.30;57.10;;;;;;4994722;28;20029;-78
2024/01/31 11:34:08;;;;;;;4.25;1.08;;;17.20;56.90;;;;;;5003167;28;20025;-79
2024/01/31 11:36:35;;;;;;;3.75;1.10;;;17.30;57.60;;;;;;5001675;28;20580;-80
2024/01/31 11:39:05;;;;;;;2.33;1.20;;;17.20;56.80;;;;;;4995052;28;20087;-78
2024/01/31 11:41:33;;;;;;;2.90;0.95;;;17.20;56.80;;;;;;4984917;28;20029;-79
2024/01/31 11:44:04;;;;;;;2.63;1.00;;;17.10;56.60;;;;;;5021146;28;20045;-78
2024/01/31 11:46:34;;;;;;;2.35;0.90;;;17.00;56.60;;;;;;4979836;28;20033;-77
2024/01/31 11:49:09;;;;;;;1.98;0.75;;;16.80;56.40;;;;;;5023250;28;20118;-78
2024/01/31 11:51:35;;;;;;;1.83;0.82;;;16.70;56.50;;;;;;5012004;28;20471;-78
2024/01/31 11:54:02;;;;;;;6.70;1.30;;;16.60;56.40;;;;;;5019599;28;20041;-78
2024/01/31 11:56:32;;;;;;;3.75;1.67;;;16.60;56.50;;;;;;4997058;28;20210;-78
2024/01/31 11:58:59;;;;;;;5.68;2.35;;;16.50;56.30;;;;;;5004389;28;20112;-80
2024/01/31 12:01:27;;;;;;;3.33;1.00;;;16.40;56.20;;;;;;5019819;28;20095;-77
2024/01/31 12:03:57;;;;;;;3.03;0.90;;;16.40;56.20;;;;;;5020008;28;20017;-78
2024/01/31 12:06:24;;;;;;;2.55;1.15;;;16.30;56.10;;;;;;5016543;28;20039;-77
2024/01/31 12:08:51;;;;;;;5.78;1.85;;;16.20;56.00;;;;;;5024157;28;20049;-78
2024/01/31 12:11:21;;;;;;;3.85;1.38;;;16.20;56.10;;;;;;5021925;28;20152;-78
2024/01/31 12:13:51;;;;;;;;;;;16.20;56.10;;;;;;5005082;28;20033;-79
2024/01/31 12:16:24;;;;;;;;;;;16.20;56.30;;;;;;5006375;28;19924;-78
2024/01/31 12:19:00;;;;;;;3.92;1.63;;;16.20;56.50;;;;;;5017552;28;20036;-79
2024/01/31 12:21:43;;;;;;;2.38;1.10;;;16.20;56.50;;;;;;5022426;28;20045;-77
2024/01/31 12:24:10;;;;;;;2.85;1.00;;;16.20;56.40;;;;;;5003650;28;20504;-79
2024/01/31 12:26:37;;;;;;;4.22;1.27;;;16.20;56.30;;;;;;5004394;28;20080;-78
2024/01/31 12:29:04;;;;;;;5.50;1.70;;;16.30;56.40;;;;;;5017640;28;20038;-79
2024/01/31 12:31:30;;;;;;;4.82;2.05;;;16.30;56.30;;;;;;5017887;28;20120;-77
2024/01/31 12:33:59;;;;;;;4.63;1.25;;;16.20;56.10;;;;;;5004159;28;20108;-78
2024/01/31 12:36:29;;;;;;;4.35;2.22;;;16.20;56.10;;;;;;5027547;28;20132;-79
2024/01/31 12:38:56;;;;;;;4.07;2.33;;;16.20;56.20;;;;;;5008631;28;20554;-78
2024/01/31 12:41:22;;;;;;;3.92;1.40;;;16.20;56.10;;;;;;5002272;28;20108;-79
2024/01/31 12:43:49;;;;;;;2.63;1.25;;;16.30;56.30;;;;;;5021391;28;20030;-78
2024/01/31 12:46:16;;;;;;;3.15;1.20;;;16.30;56.20;;;;;;5011115;28;20042;-79
2024/01/31 12:48:43;;;;;;;4.35;1.42;;;16.30;56.10;;;;;;4997782;28;20041;-79
2024/01/31 12:51:10;;;;;;;5.57;2.60;;;16.40;56.20;;;;;;5013632;28;20457;-78
2024/01/31 12:53:50;;;;;;;4.72;1.63;;;16.40;56.10;;;;;;5019725;28;20124;-79